Malaviya Twenty — AUEV — position and weather

sailwx.info

Track history (hours):
 
Tides and Currents Weather Stations Pressure Air Temp Water Temp Dewpoint Dewpoint Depression Visibility Wind Speed Wind Dir Waves Ship Positions

Malaviya Twenty

Last reported at 2015-May-23 09:33 UTC. Time now 2015-May-23 10:18 UTC.
Position N 52°57' E 001°33'.

Length 72 m; draft 4.2 m.

Type: Ship. MMSI: 419504000.

Date/timePositionNaut miles runAvg speedWind from/ knotsBaromVisibWave heightAir tempDewpointWater temp
2015-May-23 09:33N 52°57' E 001°33'1212.0
2015-May-23 08:34N 53°09' E 001°28'19 7.7
2015-May-23 06:04N 53°24' E 001°47'0 0.0
2015-May-23 05:27N 53°24' E 001°47'0 0.5
2015-May-23 04:31N 53°25' E 001°47'2 1.5
2015-May-23 03:09N 53°27' E 001°48'4 2.2
2015-May-23 01:20N 53°23' E 001°51'77 5.5
2015-May-22 11:25N 54°29' E 000°44'8 9.0
2015-May-22 10:34N 54°33' E 000°33'5 4.6
2015-May-22 09:33N 54°36' E 000°26'0 0.4
2015-May-22 08:24N 54°36' E 000°27'1 0.9
2015-May-22 07:10N 54°35' E 000°28'21 3.2
2015-May-22 00:31N 54°23' E 000°58'64 3.0
2015-May-21 03:22N 53°23' E 001°38'5 5.9
2015-May-21 02:31N 53°22' E 001°30'8 7.9
2015-May-21 01:33N 53°14' E 001°28'10 9.7
2015-May-21 00:34N 53°04' E 001°28'9 9.2
2015-May-20 23:34N 52°56' E 001°34'7 6.7
2015-May-20 22:34N 52°50' E 001°39'0 0.4
2015-May-20 21:34N 52°50' E 001°39'8 7.6
2015-May-20 20:34N 52°44' E 001°46'9 8.5
2015-May-20 19:33N 52°35' E 001°46'1 1.1
2015-May-20 18:32N 52°35' E 001°44'0 0.0
2015-May-20 17:32N 52°35' E 001°44'0 0.0
2015-May-20 16:32N 52°35' E 001°44'0 0.0
2015-May-20 15:32N 52°35' E 001°44'0 0.0
2015-May-20 14:32N 52°35' E 001°44'0 0.0
2015-May-20 13:32N 52°35' E 001°44'0 0.0
2015-May-20 12:33N 52°35' E 001°44'1 0.5
2015-May-20 11:33N 52°36' E 001°44'0 0.0
2015-May-20 10:33N 52°36' E 001°44'0 0.0
2015-May-20 09:33N 52°36' E 001°44'0 0.0
2015-May-20 08:33N 52°36' E 001°44'0 0.0
2015-May-20 07:33N 52°36' E 001°44'0 0.0
2015-May-20 06:33N 52°36' E 001°44'0 0.0
2015-May-20 05:33N 52°36' E 001°44'0 0.0
2015-May-20 04:33N 52°36' E 001°44'0 0.0
2015-May-20 03:33N 52°36' E 001°44'0 0.0
2015-May-20 02:32N 52°36' E 001°44'0 0.0
2015-May-20 01:32N 52°36' E 001°44'0 0.0
2015-May-20 00:32N 52°36' E 001°44'0 0.0
2015-May-19 23:32N 52°36' E 001°44'0 0.0
2015-May-19 22:32N 52°36' E 001°44'0 0.0
2015-May-19 21:32N 52°36' E 001°44'0 0.0
2015-May-19 20:32N 52°36' E 001°44'0 0.0
2015-May-19 19:32N 52°36' E 001°44'0 0.0
2015-May-19 18:32N 52°36' E 001°44'0 0.0
2015-May-19 17:32N 52°36' E 001°44'0 0.0
2015-May-19 16:32N 52°36' E 001°44'0 0.0
2015-May-19 15:32N 52°36' E 001°44'0 0.0
2015-May-19 14:32N 52°36' E 001°44'0 0.0
2015-May-19 13:32N 52°36' E 001°44'0 0.0
2015-May-19 12:32N 52°36' E 001°44'0 0.0
2015-May-19 11:32N 52°36' E 001°44'0 0.0
2015-May-19 10:32N 52°36' E 001°44'0 0.0
2015-May-19 09:32N 52°36' E 001°44'0 0.0
2015-May-19 08:32N 52°36' E 001°44'0 0.0
2015-May-19 07:32N 52°36' E 001°44'0 0.0
2015-May-19 06:32N 52°36' E 001°44'0 0.0
2015-May-19 05:32N 52°36' E 001°44'0 0.0
2015-May-19 04:32N 52°36' E 001°44'0 0.0
2015-May-19 03:32N 52°36' E 001°44'0 0.0
2015-May-19 02:32N 52°36' E 001°44'0 0.0
2015-May-19 01:32N 52°36' E 001°44'0 0.0
2015-May-19 00:32N 52°36' E 001°44'0 0.0
2015-May-18 23:32N 52°36' E 001°44'0 0.0
2015-May-18 22:32N 52°36' E 001°44'0 0.0
2015-May-18 21:32N 52°36' E 001°44'0 0.0
2015-May-18 20:32N 52°36' E 001°44'0 0.0
2015-May-18 19:32N 52°36' E 001°44'0 0.0
2015-May-18 18:32N 52°36' E 001°44'0 0.0
2015-May-18 17:32N 52°36' E 001°44'0 0.0
2015-May-18 16:32N 52°36' E 001°44'0 0.0
2015-May-18 15:32N 52°36' E 001°44'0 0.0
2015-May-18 14:31N 52°36' E 001°44'0 0.0
2015-May-18 13:31N 52°36' E 001°44'0 0.0
2015-May-18 12:31N 52°36' E 001°44'1 0.5
2015-May-18 11:31N 52°35' E 001°44'0 0.0
2015-May-18 10:31N 52°35' E 001°44'0 0.0
2015-May-18 09:31N 52°35' E 001°44'0 0.0
2015-May-18 08:31N 52°35' E 001°44'0 0.0
2015-May-18 07:31N 52°35' E 001°44'0 0.0
2015-May-18 06:31N 52°35' E 001°44'0 0.0
2015-May-18 05:31N 52°35' E 001°44'0 0.0
2015-May-18 04:31N 52°35' E 001°44'0 0.0
2015-May-18 03:31N 52°35' E 001°44'0 0.0
2015-May-18 02:32N 52°35' E 001°44'0 0.0
2015-May-18 01:31N 52°35' E 001°44'0 0.0
2015-May-18 00:31N 52°35' E 001°44'0 0.0
2015-May-17 23:31N 52°35' E 001°44'0 0.0
2015-May-17 22:34N 52°35' E 001°44'0 0.0
2015-May-17 21:33N 52°35' E 001°44'0 0.0
2015-May-17 20:33N 52°35' E 001°44'0 0.0
2015-May-17 19:33N 52°35' E 001°44'0 0.0
2015-May-17 18:33N 52°35' E 001°44'0 0.0
2015-May-17 17:33N 52°35' E 001°44'0 0.0
2015-May-17 16:33N 52°35' E 001°44'0 0.0
2015-May-17 15:33N 52°35' E 001°44'0 0.0
2015-May-17 14:33N 52°35' E 001°44'0 0.0
2015-May-17 13:33N 52°35' E 001°44'0 0.0
2015-May-17 12:33N 52°35' E 001°44'0 0.0
2015-May-17 11:33N 52°35' E 001°44'0 0.0
2015-May-17 10:33N 52°35' E 001°44'0 0.0
2015-May-17 09:33N 52°35' E 001°44'0 0.0
2015-May-17 08:33N 52°35' E 001°44'0 0.0
2015-May-17 07:33N 52°35' E 001°44'0 0.0
2015-May-17 06:33N 52°35' E 001°44'0 0.0
2015-May-17 05:33N 52°35' E 001°44'0 0.0
2015-May-17 04:33N 52°35' E 001°44'0 0.0
2015-May-17 03:33N 52°35' E 001°44'0 0.0
2015-May-17 02:33N 52°35' E 001°44'0 0.0
2015-May-17 01:33N 52°35' E 001°44'0 0.0
2015-May-17 00:33N 52°35' E 001°44'0 0.0
2015-May-16 23:33N 52°35' E 001°44'0 0.0
2015-May-16 22:33N 52°35' E 001°44'1 0.8
2015-May-16 21:34N 52°34' E 001°45'1 0.7
2015-May-16 20:34N 52°35' E 001°46'7 7.2
2015-May-16 19:34N 52°42' E 001°47'1212.3
2015-May-16 18:33N 52°53' E 001°38'1313.1
2015-May-16 17:33N 53°05' E 001°28'1612.7
2015-May-16 16:15N 53°21' E 001°28'1210.4
2015-May-16 15:05N 53°24' E 001°48'1 1.2
2015-May-16 14:24N 53°24' E 001°47'3 2.7
2015-May-16 13:22N 53°27' E 001°48'1 0.7
2015-May-16 12:33N 53°26' E 001°48'3 1.9
2015-May-16 11:14N 53°24' E 001°50'1 1.9
2015-May-16 10:28N 53°23' E 001°48'2 2.4
2015-May-16 09:33N 53°22' E 001°44'6 1.3
2015-May-16 04:30N 53°22' E 001°33'4 4.1
2015-May-16 03:32N 53°20' E 001°28'4 4.5
2015-May-16 02:33N 53°15' E 001°28'4 4.4
2015-May-16 01:33N 53°11' E 001°28'5 4.8
2015-May-16 00:33N 53°06' E 001°28'5 4.7
2015-May-15 23:33N 53°01' E 001°28'2 1.9
2015-May-15 22:33N 52°59' E 001°27'2 2.3
2015-May-15 21:33N 52°58' E 001°30'1211.7
2015-May-15 20:33N 52°48' E 001°41'1010.1
2015-May-15 19:33N 52°39' E 001°46'4 4.0
2015-May-15 18:34N 52°35' E 001°44'0 0.0
2015-May-15 17:33N 52°35' E 001°44'0 0.0
2015-May-15 16:33N 52°35' E 001°44'1 0.9
2015-May-15 15:34N 52°36' E 001°44'0 0.1
2015-May-15 14:33N 52°36' E 001°44'0 0.0
2015-May-15 13:34N 52°36' E 001°44'0 0.0
2015-May-15 12:33N 52°36' E 001°44'1 1.0
2015-May-15 11:31N 52°35' E 001°44'0 0.0
2015-May-15 10:33N 52°35' E 001°44'1 1.0
2015-May-15 09:32N 52°36' E 001°44'0 0.0
2015-May-15 08:32N 52°36' E 001°44'0 0.0
2015-May-15 07:32N 52°36' E 001°44'0 0.0
2015-May-15 06:32N 52°36' E 001°44'0 0.0
2015-May-15 05:32N 52°36' E 001°44'0 0.0
2015-May-15 04:32N 52°36' E 001°44'0 0.0
2015-May-15 03:32N 52°36' E 001°44'0 0.0
2015-May-15 02:32N 52°36' E 001°44'0 0.0
2015-May-15 01:32N 52°36' E 001°44'0 0.0
2015-May-15 00:32N 52°36' E 001°44'0 0.0
2015-May-14 23:32N 52°36' E 001°44'0 0.0
2015-May-14 22:32N 52°36' E 001°44'0 0.0
2015-May-14 21:32N 52°36' E 001°44'0 0.0
2015-May-14 20:32N 52°36' E 001°44'0 0.0
2015-May-14 19:32N 52°36' E 001°44'0 0.0
2015-May-14 18:32N 52°36' E 001°44'0 0.0
2015-May-14 17:32N 52°36' E 001°44'0 0.0
2015-May-14 16:32N 52°36' E 001°44'0 0.0
2015-May-14 15:32N 52°36' E 001°44'0 0.0
2015-May-14 14:32N 52°36' E 001°44'0 0.0
2015-May-14 13:32N 52°36' E 001°44'0 0.0
2015-May-14 12:32N 52°36' E 001°44'1 1.0
2015-May-14 11:33N 52°35' E 001°44'0 0.0
2015-May-14 10:32N 52°35' E 001°44'0 0.0
2015-May-14 09:32N 52°35' E 001°44'0 0.0
2015-May-14 08:32N 52°35' E 001°44'0 0.0
2015-May-14 07:32N 52°35' E 001°44'0 0.0
2015-May-14 06:33N 52°35' E 001°44'0 0.0
2015-May-14 05:33N 52°35' E 001°44'1 1.1
2015-May-14 04:33N 52°34' E 001°45'0 0.0
2015-May-14 03:33N 52°34' E 001°45'9 8.9
2015-May-14 02:33N 52°43' E 001°46'9 9.3
2015-May-14 01:33N 52°51' E 001°38'1110.9
2015-May-14 00:32N 53°01' E 001°29'1211.7
2015-May-13 23:33N 53°12' E 001°28'7810.5
2015-May-13 16:07N 54°27' E 000°49'711.3
2015-May-13 15:32N 54°31' E 000°40'6 1.5
2015-May-13 11:33N 54°33' E 000°31'3 3.0
2015-May-13 10:33N 54°36' E 000°27'  
Track history (hours):
 
Tides and Currents Weather Stations Pressure Air Temp Water Temp Dewpoint Dewpoint Depression Visibility Wind Speed Wind Dir Waves Ship Positions

Malaviya Twenty

Last reported at 2015-May-23 09:33 UTC. Time now 2015-May-23 10:18 UTC.
Position N 52°57' E 001°33'.

Length 72 m; draft 4.2 m.

Type: Ship. MMSI: 419504000.

Date/timePositionNaut miles runAvg speedWind from/ knotsBaromVisibWave heightAir tempDewpointWater temp
2015-May-23 09:33N 52°57' E 001°33'1212.0
2015-May-23 08:34N 53°09' E 001°28'19 7.7
2015-May-23 06:04N 53°24' E 001°47'0 0.0
2015-May-23 05:27N 53°24' E 001°47'0 0.5
2015-May-23 04:31N 53°25' E 001°47'2 1.5
2015-May-23 03:09N 53°27' E 001°48'4 2.2
2015-May-23 01:20N 53°23' E 001°51'77 5.5
2015-May-22 11:25N 54°29' E 000°44'8 9.0
2015-May-22 10:34N 54°33' E 000°33'5 4.6
2015-May-22 09:33N 54°36' E 000°26'0 0.4
2015-May-22 08:24N 54°36' E 000°27'1 0.9
2015-May-22 07:10N 54°35' E 000°28'21 3.2
2015-May-22 00:31N 54°23' E 000°58'64 3.0
2015-May-21 03:22N 53°23' E 001°38'5 5.9
2015-May-21 02:31N 53°22' E 001°30'8 7.9
2015-May-21 01:33N 53°14' E 001°28'10 9.7
2015-May-21 00:34N 53°04' E 001°28'9 9.2
2015-May-20 23:34N 52°56' E 001°34'7 6.7
2015-May-20 22:34N 52°50' E 001°39'0 0.4
2015-May-20 21:34N 52°50' E 001°39'8 7.6
2015-May-20 20:34N 52°44' E 001°46'9 8.5
2015-May-20 19:33N 52°35' E 001°46'1 1.1
2015-May-20 18:32N 52°35' E 001°44'0 0.0
2015-May-20 17:32N 52°35' E 001°44'0 0.0
2015-May-20 16:32N 52°35' E 001°44'0 0.0
2015-May-20 15:32N 52°35' E 001°44'0 0.0
2015-May-20 14:32N 52°35' E 001°44'0 0.0
2015-May-20 13:32N 52°35' E 001°44'0 0.0
2015-May-20 12:33N 52°35' E 001°44'1 0.5
2015-May-20 11:33N 52°36' E 001°44'0 0.0
2015-May-20 10:33N 52°36' E 001°44'0 0.0
2015-May-20 09:33N 52°36' E 001°44'0 0.0
2015-May-20 08:33N 52°36' E 001°44'0 0.0
2015-May-20 07:33N 52°36' E 001°44'0 0.0
2015-May-20 06:33N 52°36' E 001°44'0 0.0
2015-May-20 05:33N 52°36' E 001°44'0 0.0
2015-May-20 04:33N 52°36' E 001°44'0 0.0
2015-May-20 03:33N 52°36' E 001°44'0 0.0
2015-May-20 02:32N 52°36' E 001°44'0 0.0
2015-May-20 01:32N 52°36' E 001°44'0 0.0
2015-May-20 00:32N 52°36' E 001°44'0 0.0
2015-May-19 23:32N 52°36' E 001°44'0 0.0
2015-May-19 22:32N 52°36' E 001°44'0 0.0
2015-May-19 21:32N 52°36' E 001°44'0 0.0
2015-May-19 20:32N 52°36' E 001°44'0 0.0
2015-May-19 19:32N 52°36' E 001°44'0 0.0
2015-May-19 18:32N 52°36' E 001°44'0 0.0
2015-May-19 17:32N 52°36' E 001°44'0 0.0
2015-May-19 16:32N 52°36' E 001°44'0 0.0
2015-May-19 15:32N 52°36' E 001°44'0 0.0
2015-May-19 14:32N 52°36' E 001°44'0 0.0
2015-May-19 13:32N 52°36' E 001°44'0 0.0
2015-May-19 12:32N 52°36' E 001°44'0 0.0
2015-May-19 11:32N 52°36' E 001°44'0 0.0
2015-May-19 10:32N 52°36' E 001°44'0 0.0
2015-May-19 09:32N 52°36' E 001°44'0 0.0
2015-May-19 08:32N 52°36' E 001°44'0 0.0
2015-May-19 07:32N 52°36' E 001°44'0 0.0
2015-May-19 06:32N 52°36' E 001°44'0 0.0
2015-May-19 05:32N 52°36' E 001°44'0 0.0
2015-May-19 04:32N 52°36' E 001°44'0 0.0
2015-May-19 03:32N 52°36' E 001°44'0 0.0
2015-May-19 02:32N 52°36' E 001°44'0 0.0
2015-May-19 01:32N 52°36' E 001°44'0 0.0
2015-May-19 00:32N 52°36' E 001°44'0 0.0
2015-May-18 23:32N 52°36' E 001°44'0 0.0
2015-May-18 22:32N 52°36' E 001°44'0 0.0
2015-May-18 21:32N 52°36' E 001°44'0 0.0
2015-May-18 20:32N 52°36' E 001°44'0 0.0
2015-May-18 19:32N 52°36' E 001°44'0 0.0
2015-May-18 18:32N 52°36' E 001°44'0 0.0
2015-May-18 17:32N 52°36' E 001°44'0 0.0
2015-May-18 16:32N 52°36' E 001°44'0 0.0
2015-May-18 15:32N 52°36' E 001°44'0 0.0
2015-May-18 14:31N 52°36' E 001°44'0 0.0
2015-May-18 13:31N 52°36' E 001°44'0 0.0
2015-May-18 12:31N 52°36' E 001°44'1 0.5
2015-May-18 11:31N 52°35' E 001°44'0 0.0
2015-May-18 10:31N 52°35' E 001°44'0 0.0
2015-May-18 09:31N 52°35' E 001°44'0 0.0
2015-May-18 08:31N 52°35' E 001°44'0 0.0
2015-May-18 07:31N 52°35' E 001°44'0 0.0
2015-May-18 06:31N 52°35' E 001°44'0 0.0
2015-May-18 05:31N 52°35' E 001°44'0 0.0
2015-May-18 04:31N 52°35' E 001°44'0 0.0
2015-May-18 03:31N 52°35' E 001°44'0 0.0
2015-May-18 02:32N 52°35' E 001°44'0 0.0
2015-May-18 01:31N 52°35' E 001°44'0 0.0
2015-May-18 00:31N 52°35' E 001°44'0 0.0
2015-May-17 23:31N 52°35' E 001°44'0 0.0
2015-May-17 22:34N 52°35' E 001°44'0 0.0
2015-May-17 21:33N 52°35' E 001°44'0 0.0
2015-May-17 20:33N 52°35' E 001°44'0 0.0
2015-May-17 19:33N 52°35' E 001°44'0 0.0
2015-May-17 18:33N 52°35' E 001°44'0 0.0
2015-May-17 17:33N 52°35' E 001°44'0 0.0
2015-May-17 16:33N 52°35' E 001°44'0 0.0
2015-May-17 15:33N 52°35' E 001°44'0 0.0
2015-May-17 14:33N 52°35' E 001°44'0 0.0
2015-May-17 13:33N 52°35' E 001°44'0 0.0
2015-May-17 12:33N 52°35' E 001°44'0 0.0
2015-May-17 11:33N 52°35' E 001°44'0 0.0
2015-May-17 10:33N 52°35' E 001°44'0 0.0
2015-May-17 09:33N 52°35' E 001°44'0 0.0
2015-May-17 08:33N 52°35' E 001°44'0 0.0
2015-May-17 07:33N 52°35' E 001°44'0 0.0
2015-May-17 06:33N 52°35' E 001°44'0 0.0
2015-May-17 05:33N 52°35' E 001°44'0 0.0
2015-May-17 04:33N 52°35' E 001°44'0 0.0
2015-May-17 03:33N 52°35' E 001°44'0 0.0
2015-May-17 02:33N 52°35' E 001°44'0 0.0
2015-May-17 01:33N 52°35' E 001°44'0 0.0
2015-May-17 00:33N 52°35' E 001°44'0 0.0
2015-May-16 23:33N 52°35' E 001°44'0 0.0
2015-May-16 22:33N 52°35' E 001°44'1 0.8
2015-May-16 21:34N 52°34' E 001°45'1 0.7
2015-May-16 20:34N 52°35' E 001°46'7 7.2
2015-May-16 19:34N 52°42' E 001°47'1212.3
2015-May-16 18:33N 52°53' E 001°38'1313.1
2015-May-16 17:33N 53°05' E 001°28'1612.7
2015-May-16 16:15N 53°21' E 001°28'1210.4
2015-May-16 15:05N 53°24' E 001°48'1 1.2
2015-May-16 14:24N 53°24' E 001°47'3 2.7
2015-May-16 13:22N 53°27' E 001°48'1 0.7
2015-May-16 12:33N 53°26' E 001°48'3 1.9
2015-May-16 11:14N 53°24' E 001°50'1 1.9
2015-May-16 10:28N 53°23' E 001°48'2 2.4
2015-May-16 09:33N 53°22' E 001°44'6 1.3
2015-May-16 04:30N 53°22' E 001°33'4 4.1
2015-May-16 03:32N 53°20' E 001°28'4 4.5
2015-May-16 02:33N 53°15' E 001°28'4 4.4
2015-May-16 01:33N 53°11' E 001°28'5 4.8
2015-May-16 00:33N 53°06' E 001°28'5 4.7
2015-May-15 23:33N 53°01' E 001°28'2 1.9
2015-May-15 22:33N 52°59' E 001°27'2 2.3
2015-May-15 21:33N 52°58' E 001°30'1211.7
2015-May-15 20:33N 52°48' E 001°41'1010.1
2015-May-15 19:33N 52°39' E 001°46'4 4.0
2015-May-15 18:34N 52°35' E 001°44'0 0.0
2015-May-15 17:33N 52°35' E 001°44'0 0.0
2015-May-15 16:33N 52°35' E 001°44'1 0.9
2015-May-15 15:34N 52°36' E 001°44'0 0.1
2015-May-15 14:33N 52°36' E 001°44'0 0.0
2015-May-15 13:34N 52°36' E 001°44'0 0.0
2015-May-15 12:33N 52°36' E 001°44'1 1.0
2015-May-15 11:31N 52°35' E 001°44'0 0.0
2015-May-15 10:33N 52°35' E 001°44'1 1.0
2015-May-15 09:32N 52°36' E 001°44'0 0.0
2015-May-15 08:32N 52°36' E 001°44'0 0.0
2015-May-15 07:32N 52°36' E 001°44'0 0.0
2015-May-15 06:32N 52°36' E 001°44'0 0.0
2015-May-15 05:32N 52°36' E 001°44'0 0.0
2015-May-15 04:32N 52°36' E 001°44'0 0.0
2015-May-15 03:32N 52°36' E 001°44'0 0.0
2015-May-15 02:32N 52°36' E 001°44'0 0.0
2015-May-15 01:32N 52°36' E 001°44'0 0.0
2015-May-15 00:32N 52°36' E 001°44'0 0.0
2015-May-14 23:32N 52°36' E 001°44'0 0.0
2015-May-14 22:32N 52°36' E 001°44'0 0.0
2015-May-14 21:32N 52°36' E 001°44'0 0.0
2015-May-14 20:32N 52°36' E 001°44'0 0.0
2015-May-14 19:32N 52°36' E 001°44'0 0.0
2015-May-14 18:32N 52°36' E 001°44'0 0.0
2015-May-14 17:32N 52°36' E 001°44'0 0.0
2015-May-14 16:32N 52°36' E 001°44'0 0.0
2015-May-14 15:32N 52°36' E 001°44'0 0.0
2015-May-14 14:32N 52°36' E 001°44'0 0.0
2015-May-14 13:32N 52°36' E 001°44'0 0.0
2015-May-14 12:32N 52°36' E 001°44'1 1.0
2015-May-14 11:33N 52°35' E 001°44'0 0.0
2015-May-14 10:32N 52°35' E 001°44'0 0.0
2015-May-14 09:32N 52°35' E 001°44'0 0.0
2015-May-14 08:32N 52°35' E 001°44'0 0.0
2015-May-14 07:32N 52°35' E 001°44'0 0.0
2015-May-14 06:33N 52°35' E 001°44'0 0.0
2015-May-14 05:33N 52°35' E 001°44'1 1.1
2015-May-14 04:33N 52°34' E 001°45'0 0.0
2015-May-14 03:33N 52°34' E 001°45'9 8.9
2015-May-14 02:33N 52°43' E 001°46'9 9.3
2015-May-14 01:33N 52°51' E 001°38'1110.9
2015-May-14 00:32N 53°01' E 001°29'1211.7
2015-May-13 23:33N 53°12' E 001°28'7810.5
2015-May-13 16:07N 54°27' E 000°49'711.3
2015-May-13 15:32N 54°31' E 000°40'6 1.5
2015-May-13 11:33N 54°33' E 000°31'3 3.0
2015-May-13 10:33N 54°36' E 000°27'  

Dump ship's entire track history